sensor_id;sensor_type;location;lat;lon;timestamp;pressure;altitude;pressure_sealevel;temperature;humidity
58662;BME280;44432;49.786;22.760;2023-05-07T00:00:31;99319.36;;;9.79;90.95
58662;BME280;44432;49.786;22.760;2023-05-07T00:03:21;99317.38;;;9.77;90.79
58662;BME280;44432;49.786;22.760;2023-05-07T00:05:51;99310.85;;;9.74;90.85
58662;BME280;44432;49.786;22.760;2023-05-07T00:08:22;99315.69;;;9.71;90.80
58662;BME280;44432;49.786;22.760;2023-05-07T00:10:53;99310.62;;;9.68;90.94
58662;BME280;44432;49.786;22.760;2023-05-07T00:13:23;99307.22;;;9.66;91.03
58662;BME280;44432;49.786;22.760;2023-05-07T00:15:54;99304.46;;;9.64;91.15
58662;BME280;44432;49.786;22.760;2023-05-07T00:18:24;99300.61;;;9.63;91.13
58662;BME280;44432;49.786;22.760;2023-05-07T00:20:55;99304.75;;;9.62;91.21
58662;BME280;44432;49.786;22.760;2023-05-07T00:23:26;99305.80;;;9.62;91.32
58662;BME280;44432;49.786;22.760;2023-05-07T00:25:57;99304.46;;;9.63;91.42
58662;BME280;44432;49.786;22.760;2023-05-07T00:28:27;99305.04;;;9.63;91.33
58662;BME280;44432;49.786;22.760;2023-05-07T00:30:58;99305.23;;;9.62;91.48
58662;BME280;44432;49.786;22.760;2023-05-07T00:33:28;99306.64;;;9.66;91.55
58662;BME280;44432;49.786;22.760;2023-05-07T00:35:59;99310.62;;;9.69;91.70
58662;BME280;44432;49.786;22.760;2023-05-07T00:38:31;99308.27;;;9.73;91.79
58662;BME280;44432;49.786;22.760;2023-05-07T00:41:04;99310.85;;;9.77;91.93
58662;BME280;44432;49.786;22.760;2023-05-07T00:43:36;99315.78;;;9.80;91.97
58662;BME280;44432;49.786;22.760;2023-05-07T00:46:07;99314.97;;;9.82;91.86
58662;BME280;44432;49.786;22.760;2023-05-07T00:48:37;99315.45;;;9.83;91.81
58662;BME280;44432;49.786;22.760;2023-05-07T00:51:08;99315.51;;;9.82;91.69
58662;BME280;44432;49.786;22.760;2023-05-07T00:53:40;99314.04;;;9.83;91.75
58662;BME280;44432;49.786;22.760;2023-05-07T00:56:11;99315.95;;;9.83;91.83
58662;BME280;44432;49.786;22.760;2023-05-07T00:58:42;99318.06;;;9.82;91.78
58662;BME280;44432;49.786;22.760;2023-05-07T01:01:13;99322.56;;;9.80;91.66
58662;BME280;44432;49.786;22.760;2023-05-07T01:03:45;99328.29;;;9.75;91.58
58662;BME280;44432;49.786;22.760;2023-05-07T01:06:16;99335.30;;;9.73;91.65
58662;BME280;44432;49.786;22.760;2023-05-07T01:08:47;99336.30;;;9.68;91.52
58662;BME280;44432;49.786;22.760;2023-05-07T01:11:20;99337.92;;;9.65;91.66
58662;BME280;44432;49.786;22.760;2023-05-07T01:13:51;99342.05;;;9.63;91.88
58662;BME280;44432;49.786;22.760;2023-05-07T01:16:22;99343.15;;;9.61;92.03
58662;BME280;44432;49.786;22.760;2023-05-07T01:18:53;99343.76;;;9.61;92.09
58662;BME280;44432;49.786;22.760;2023-05-07T01:21:26;99350.82;;;9.61;92.16
58662;BME280;44432;49.786;22.760;2023-05-07T01:23:57;99352.97;;;9.60;92.31
58662;BME280;44432;49.786;22.760;2023-05-07T01:26:28;99352.60;;;9.61;92.29
58662;BME280;44432;49.786;22.760;2023-05-07T01:28:58;99347.48;;;9.61;92.39
58662;BME280;44432;49.786;22.760;2023-05-07T01:31:29;99349.23;;;9.62;92.56
58662;BME280;44432;49.786;22.760;2023-05-07T01:34:00;99354.30;;;9.65;92.72
58662;BME280;44432;49.786;22.760;2023-05-07T01:36:33;99355.60;;;9.68;92.86
58662;BME280;44432;49.786;22.760;2023-05-07T01:39:05;99356.56;;;9.73;93.07
58662;BME280;44432;49.786;22.760;2023-05-07T01:41:36;99362.40;;;9.79;93.34
58662;BME280;44432;49.786;22.760;2023-05-07T01:44:07;99361.70;;;9.85;93.48
58662;BME280;44432;49.786;22.760;2023-05-07T01:46:38;99361.93;;;9.93;93.58
58662;BME280;44432;49.786;22.760;2023-05-07T01:49:09;99365.45;;;10.01;93.58
58662;BME280;44432;49.786;22.760;2023-05-07T01:51:40;99366.81;;;10.07;93.51
58662;BME280;44432;49.786;22.760;2023-05-07T01:54:11;99369.23;;;10.13;93.49
58662;BME280;44432;49.786;22.760;2023-05-07T01:56:42;99365.16;;;10.19;93.41
58662;BME280;44432;49.786;22.760;2023-05-07T01:59:13;99358.89;;;10.22;93.31
58662;BME280;44432;49.786;22.760;2023-05-07T02:01:43;99361.07;;;10.24;93.08
58662;BME280;44432;49.786;22.760;2023-05-07T02:04:14;99354.21;;;10.24;92.70
58662;BME280;44432;49.786;22.760;2023-05-07T02:06:45;99352.59;;;10.23;92.74
58662;BME280;44432;49.786;22.760;2023-05-07T02:09:15;99356.77;;;10.21;92.50
58662;BME280;44432;49.786;22.760;2023-05-07T02:11:46;99358.48;;;10.19;92.47
58662;BME280;44432;49.786;22.760;2023-05-07T02:14:16;99360.16;;;10.16;92.40
58662;BME280;44432;49.786;22.760;2023-05-07T02:16:47;99358.27;;;10.13;92.39
58662;BME280;44432;49.786;22.760;2023-05-07T02:19:17;99352.71;;;10.10;92.19
58662;BME280;44432;49.786;22.760;2023-05-07T02:21:50;99347.16;;;10.07;92.30
58662;BME280;44432;49.786;22.760;2023-05-07T02:24:22;99348.80;;;10.04;92.23
58662;BME280;44432;49.786;22.760;2023-05-07T02:26:52;99348.64;;;10.02;92.20
58662;BME280;44432;49.786;22.760;2023-05-07T02:29:23;99347.39;;;9.99;92.34
58662;BME280;44432;49.786;22.760;2023-05-07T02:31:54;99350.20;;;9.97;92.15
58662;BME280;44432;49.786;22.760;2023-05-07T02:34:24;99353.73;;;9.94;92.21
58662;BME280;44432;49.786;22.760;2023-05-07T02:36:55;99350.09;;;9.91;92.32
58662;BME280;44432;49.786;22.760;2023-05-07T02:39:25;99349.80;;;9.90;92.38
58662;BME280;44432;49.786;22.760;2023-05-07T02:41:56;99352.77;;;9.92;92.44
58662;BME280;44432;49.786;22.760;2023-05-07T02:44:27;99346.76;;;9.93;92.47
58662;BME280;44432;49.786;22.760;2023-05-07T02:47:00;99351.45;;;9.95;92.58
58662;BME280;44432;49.786;22.760;2023-05-07T02:49:31;99353.44;;;9.97;92.78
58662;BME280;44432;49.786;22.760;2023-05-07T02:52:01;99356.80;;;10.00;92.60
58662;BME280;44432;49.786;22.760;2023-05-07T02:54:32;99357.82;;;10.03;92.72
58662;BME280;44432;49.786;22.760;2023-05-07T02:57:02;99358.29;;;10.05;92.60
58662;BME280;44432;49.786;22.760;2023-05-07T02:59:33;99357.48;;;10.09;92.63
58662;BME280;44432;49.786;22.760;2023-05-07T03:02:03;99357.74;;;10.12;92.66
58662;BME280;44432;49.786;22.760;2023-05-07T03:04:34;99354.86;;;10.15;92.72
58662;BME280;44432;49.786;22.760;2023-05-07T03:07:05;99358.02;;;10.19;92.76
58662;BME280;44432;49.786;22.760;2023-05-07T03:09:35;99352.92;;;10.22;92.65
58662;BME280;44432;49.786;22.760;2023-05-07T03:12:06;99358.55;;;10.26;92.50
58662;BME280;44432;49.786;22.760;2023-05-07T03:14:37;99358.62;;;10.28;92.41
58662;BME280;44432;49.786;22.760;2023-05-07T03:17:07;99362.71;;;10.30;92.40
58662;BME280;44432;49.786;22.760;2023-05-07T03:19:38;99366.98;;;10.31;92.35
58662;BME280;44432;49.786;22.760;2023-05-07T03:22:09;99362.30;;;10.33;92.39
58662;BME280;44432;49.786;22.760;2023-05-07T03:24:39;99362.13;;;10.34;92.36
58662;BME280;44432;49.786;22.760;2023-05-07T03:27:10;99360.54;;;10.37;92.45
58662;BME280;44432;49.786;22.760;2023-05-07T03:29:40;99363.98;;;10.39;92.36
58662;BME280;44432;49.786;22.760;2023-05-07T03:32:11;99370.56;;;10.41;92.37
58662;BME280;44432;49.786;22.760;2023-05-07T03:34:42;99370.31;;;10.42;92.23
58662;BME280;44432;49.786;22.760;2023-05-07T03:37:12;99377.38;;;10.45;92.23
58662;BME280;44432;49.786;22.760;2023-05-07T03:39:43;99381.87;;;10.47;92.13
58662;BME280;44432;49.786;22.760;2023-05-07T03:42:14;99386.49;;;10.48;92.09
58662;BME280;44432;49.786;22.760;2023-05-07T03:44:44;99384.66;;;10.49;92.00
58662;BME280;44432;49.786;22.760;2023-05-07T03:47:15;99389.41;;;10.49;91.75
58662;BME280;44432;49.786;22.760;2023-05-07T03:49:46;99396.23;;;10.50;91.86
58662;BME280;44432;49.786;22.760;2023-05-07T03:52:17;99394.52;;;10.51;91.87
58662;BME280;44432;49.786;22.760;2023-05-07T03:54:51;99395.98;;;10.52;91.80
58662;BME280;44432;49.786;22.760;2023-05-07T03:57:22;99401.79;;;10.52;91.48
58662;BME280;44432;49.786;22.760;2023-05-07T03:59:52;99408.09;;;10.51;91.38
58662;BME280;44432;49.786;22.760;2023-05-07T04:02:23;99405.85;;;10.52;91.50
58662;BME280;44432;49.786;22.760;2023-05-07T04:04:53;99406.21;;;10.53;91.34
58662;BME280;44432;49.786;22.760;2023-05-07T04:07:24;99405.64;;;10.55;91.34
58662;BME280;44432;49.786;22.760;2023-05-07T04:09:55;99413.60;;;10.57;91.33
58662;BME280;44432;49.786;22.760;2023-05-07T04:12:25;99411.88;;;10.59;91.20
58662;BME280;44432;49.786;22.760;2023-05-07T04:14:56;99412.19;;;10.63;91.15
58662;BME280;44432;49.786;22.760;2023-05-07T04:17:26;99413.44;;;10.67;91.05
58662;BME280;44432;49.786;22.760;2023-05-07T04:19:57;99411.71;;;10.70;90.92
58662;BME280;44432;49.786;22.760;2023-05-07T04:22:28;99409.33;;;10.75;90.67
58662;BME280;44432;49.786;22.760;2023-05-07T04:24:58;99409.71;;;10.80;90.67
58662;BME280;44432;49.786;22.760;2023-05-07T04:27:29;99403.96;;;10.86;90.70
58662;BME280;44432;49.786;22.760;2023-05-07T04:30:00;99395.33;;;10.91;90.37
58662;BME280;44432;49.786;22.760;2023-05-07T04:32:30;99402.55;;;10.97;90.15
58662;BME280;44432;49.786;22.760;2023-05-07T04:35:01;99407.65;;;11.02;90.12
58662;BME280;44432;49.786;22.760;2023-05-07T04:37:33;99408.48;;;11.08;89.86
58662;BME280;44432;49.786;22.760;2023-05-07T04:40:05;99410.89;;;11.12;89.67
58662;BME280;44432;49.786;22.760;2023-05-07T04:42:36;99416.77;;;11.14;89.23
58662;BME280;44432;49.786;22.760;2023-05-07T04:45:08;99419.77;;;11.14;89.29
58662;BME280;44432;49.786;22.760;2023-05-07T04:47:39;99419.79;;;11.13;89.07
58662;BME280;44432;49.786;22.760;2023-05-07T04:50:11;99420.71;;;11.13;89.22
58662;BME280;44432;49.786;22.760;2023-05-07T04:52:42;99416.31;;;11.16;89.18
58662;BME280;44432;49.786;22.760;2023-05-07T04:55:13;99419.41;;;11.21;89.09
58662;BME280;44432;49.786;22.760;2023-05-07T04:57:44;99422.77;;;11.24;88.88
58662;BME280;44432;49.786;22.760;2023-05-07T05:00:16;99419.54;;;11.27;88.68
58662;BME280;44432;49.786;22.760;2023-05-07T05:02:48;99424.19;;;11.31;88.74
58662;BME280;44432;49.786;22.760;2023-05-07T05:05:20;99421.73;;;11.34;88.27
58662;BME280;44432;49.786;22.760;2023-05-07T05:07:50;99423.21;;;11.37;88.02
58662;BME280;44432;49.786;22.760;2023-05-07T05:10:23;99425.87;;;11.44;88.50
58662;BME280;44432;49.786;22.760;2023-05-07T05:12:54;99426.65;;;11.54;88.25
58662;BME280;44432;49.786;22.760;2023-05-07T05:15:24;99430.13;;;11.62;88.16
58662;BME280;44432;49.786;22.760;2023-05-07T05:17:55;99431.31;;;11.66;87.73
58662;BME280;44432;49.786;22.760;2023-05-07T05:20:26;99435.08;;;11.68;87.23
58662;BME280;44432;49.786;22.760;2023-05-07T05:22:56;99436.29;;;11.69;86.62
58662;BME280;44432;49.786;22.760;2023-05-07T05:25:27;99438.73;;;11.70;86.11
58662;BME280;44432;49.786;22.760;2023-05-07T05:27:58;99435.56;;;11.68;86.23
58662;BME280;44432;49.786;22.760;2023-05-07T05:30:29;99442.35;;;11.65;86.02
58662;BME280;44432;49.786;22.760;2023-05-07T05:33:00;99444.13;;;11.61;85.48
58662;BME280;44432;49.786;22.760;2023-05-07T05:35:30;99443.92;;;11.56;85.36
58662;BME280;44432;49.786;22.760;2023-05-07T05:38:01;99444.82;;;11.55;85.27
58662;BME280;44432;49.786;22.760;2023-05-07T05:40:32;99443.72;;;11.56;85.44
58662;BME280;44432;49.786;22.760;2023-05-07T05:43:03;99443.27;;;11.56;85.43
58662;BME280;44432;49.786;22.760;2023-05-07T05:45:34;99449.02;;;11.58;85.66
58662;BME280;44432;49.786;22.760;2023-05-07T05:48:06;99444.91;;;11.58;85.35
58662;BME280;44432;49.786;22.760;2023-05-07T05:50:37;99448.14;;;11.58;85.16
58662;BME280;44432;49.786;22.760;2023-05-07T05:53:08;99453.29;;;11.54;85.08
58662;BME280;44432;49.786;22.760;2023-05-07T05:55:39;99451.09;;;11.50;84.71
58662;BME280;44432;49.786;22.760;2023-05-07T05:58:10;99457.15;;;11.49;84.82
58662;BME280;44432;49.786;22.760;2023-05-07T06:00:40;99464.56;;;11.47;84.57
58662;BME280;44432;49.786;22.760;2023-05-07T06:03:11;99466.39;;;11.53;85.23
58662;BME280;44432;49.786;22.760;2023-05-07T06:05:42;99465.92;;;11.56;84.45
58662;BME280;44432;49.786;22.760;2023-05-07T06:08:13;99463.79;;;11.43;83.89
58662;BME280;44432;49.786;22.760;2023-05-07T06:10:43;99465.80;;;11.29;84.02
58662;BME280;44432;49.786;22.760;2023-05-07T06:13:14;99469.47;;;11.20;84.20
58662;BME280;44432;49.786;22.760;2023-05-07T06:15:45;99473.92;;;11.15;84.59
58662;BME280;44432;49.786;22.760;2023-05-07T06:18:15;99476.21;;;11.05;84.20
58662;BME280;44432;49.786;22.760;2023-05-07T06:20:46;99485.16;;;10.95;84.30
58662;BME280;44432;49.786;22.760;2023-05-07T06:23:16;99488.15;;;10.87;84.83
58662;BME280;44432;49.786;22.760;2023-05-07T06:25:49;99488.45;;;10.82;84.41
58662;BME280;44432;49.786;22.760;2023-05-07T06:28:20;99490.58;;;10.68;84.07
58662;BME280;44432;49.786;22.760;2023-05-07T06:30:50;99486.47;;;10.53;84.24
58662;BME280;44432;49.786;22.760;2023-05-07T06:33:21;99489.47;;;10.40;84.32
58662;BME280;44432;49.786;22.760;2023-05-07T06:35:52;99495.03;;;10.26;84.56
58662;BME280;44432;49.786;22.760;2023-05-07T06:38:22;99499.39;;;10.13;84.92
58662;BME280;44432;49.786;22.760;2023-05-07T06:40:53;99495.73;;;10.05;85.43
58662;BME280;44432;49.786;22.760;2023-05-07T06:43:25;99503.73;;;10.01;85.79
58662;BME280;44432;49.786;22.760;2023-05-07T06:45:55;99509.77;;;9.96;85.39
58662;BME280;44432;49.786;22.760;2023-05-07T06:48:26;99510.10;;;9.83;85.34
58662;BME280;44432;49.786;22.760;2023-05-07T06:50:57;99512.65;;;9.77;85.59
58662;BME280;44432;49.786;22.760;2023-05-07T06:53:27;99523.88;;;9.71;85.56
58662;BME280;44432;49.786;22.760;2023-05-07T06:55:59;99527.02;;;9.64;85.49
58662;BME280;44432;49.786;22.760;2023-05-07T06:58:31;99532.20;;;9.54;85.53
58662;BME280;44432;49.786;22.760;2023-05-07T07:01:01;99540.13;;;9.46;85.71
58662;BME280;44432;49.786;22.760;2023-05-07T07:03:32;99542.14;;;9.39;85.49
58662;BME280;44432;49.786;22.760;2023-05-07T07:06:03;99544.99;;;9.26;85.36
58662;BME280;44432;49.786;22.760;2023-05-07T07:08:34;99545.81;;;9.18;85.64
58662;BME280;44432;49.786;22.760;2023-05-07T07:11:04;99550.36;;;9.20;86.42
58662;BME280;44432;49.786;22.760;2023-05-07T07:13:35;99557.50;;;9.22;86.44
58662;BME280;44432;49.786;22.760;2023-05-07T07:16:06;99563.67;;;9.18;86.26
58662;BME280;44432;49.786;22.760;2023-05-07T07:18:37;99566.45;;;9.20;86.64
58662;BME280;44432;49.786;22.760;2023-05-07T07:21:07;99571.01;;;9.24;86.48
58662;BME280;44432;49.786;22.760;2023-05-07T07:23:38;99572.52;;;9.19;85.53
58662;BME280;44432;49.786;22.760;2023-05-07T07:26:08;99575.55;;;9.16;85.85
58662;BME280;44432;49.786;22.760;2023-05-07T07:28:44;99573.16;;;9.17;86.26
58662;BME280;44432;49.786;22.760;2023-05-07T07:31:15;99585.56;;;9.24;86.35
58662;BME280;44432;49.786;22.760;2023-05-07T07:33:46;99586.79;;;9.19;85.06
58662;BME280;44432;49.786;22.760;2023-05-07T07:36:18;99590.15;;;9.10;85.13
58662;BME280;44432;49.786;22.760;2023-05-07T07:38:49;99588.90;;;9.04;84.71
58662;BME280;44432;49.786;22.760;2023-05-07T07:41:20;99592.27;;;8.99;85.01
58662;BME280;44432;49.786;22.760;2023-05-07T07:43:50;99596.83;;;9.02;85.25
58662;BME280;44432;49.786;22.760;2023-05-07T07:46:21;99601.76;;;9.13;85.61
58662;BME280;44432;49.786;22.760;2023-05-07T07:48:52;99603.64;;;9.25;85.46
58662;BME280;44432;49.786;22.760;2023-05-07T07:51:23;99608.13;;;9.38;85.51
58662;BME280;44432;49.786;22.760;2023-05-07T07:53:54;99607.94;;;9.55;85.10
58662;BME280;44432;49.786;22.760;2023-05-07T07:56:24;99609.27;;;9.65;84.46
58662;BME280;44432;49.786;22.760;2023-05-07T07:58:55;99613.98;;;9.77;84.66
58662;BME280;44432;49.786;22.760;2023-05-07T08:01:26;99617.13;;;9.84;84.00
58662;BME280;44432;49.786;22.760;2023-05-07T08:03:56;99616.08;;;9.92;83.80
58662;BME280;44432;49.786;22.760;2023-05-07T08:06:28;99619.07;;;10.02;83.95
58662;BME280;44432;49.786;22.760;2023-05-07T08:08:59;99615.17;;;10.06;83.62
58662;BME280;44432;49.786;22.760;2023-05-07T08:11:30;99622.07;;;10.04;83.52
58662;BME280;44432;49.786;22.760;2023-05-07T08:14:00;99618.58;;;10.04;83.25
58662;BME280;44432;49.786;22.760;2023-05-07T08:16:31;99621.06;;;10.06;83.17
58662;BME280;44432;49.786;22.760;2023-05-07T08:19:02;99621.84;;;10.10;83.00
58662;BME280;44432;49.786;22.760;2023-05-07T08:21:33;99623.70;;;10.13;82.79
58662;BME280;44432;49.786;22.760;2023-05-07T08:24:05;99626.35;;;10.27;83.36
58662;BME280;44432;49.786;22.760;2023-05-07T08:26:36;99631.58;;;10.41;83.03
58662;BME280;44432;49.786;22.760;2023-05-07T08:29:08;99636.36;;;10.47;82.64
58662;BME280;44432;49.786;22.760;2023-05-07T08:31:39;99643.84;;;10.54;82.29
58662;BME280;44432;49.786;22.760;2023-05-07T08:34:10;99639.45;;;10.55;81.95
58662;BME280;44432;49.786;22.760;2023-05-07T08:36:40;99644.89;;;10.48;80.97
58662;BME280;44432;49.786;22.760;2023-05-07T08:39:12;99645.46;;;10.43;81.22
58662;BME280;44432;49.786;22.760;2023-05-07T08:41:45;99647.48;;;10.47;80.79
58662;BME280;44432;49.786;22.760;2023-05-07T08:44:17;99649.98;;;10.51;80.73
58662;BME280;44432;49.786;22.760;2023-05-07T08:46:52;99654.04;;;10.55;80.93
58662;BME280;44432;49.786;22.760;2023-05-07T08:49:24;99654.73;;;10.53;80.83
58662;BME280;44432;49.786;22.760;2023-05-07T08:51:55;99660.53;;;10.46;80.71
58662;BME280;44432;49.786;22.760;2023-05-07T08:54:26;99664.44;;;10.39;80.48
58662;BME280;44432;49.786;22.760;2023-05-07T08:56:58;99666.40;;;10.34;81.12
58662;BME280;44432;49.786;22.760;2023-05-07T08:59:29;99663.63;;;10.27;80.85
58662;BME280;44432;49.786;22.760;2023-05-07T09:02:00;99669.23;;;10.24;80.45
58662;BME280;44432;49.786;22.760;2023-05-07T09:04:30;99669.55;;;10.22;80.81
58662;BME280;44432;49.786;22.760;2023-05-07T09:07:02;99670.52;;;10.31;80.60
58662;BME280;44432;49.786;22.760;2023-05-07T09:09:34;99671.75;;;10.32;80.31
58662;BME280;44432;49.786;22.760;2023-05-07T09:12:06;99673.63;;;10.36;80.48
58662;BME280;44432;49.786;22.760;2023-05-07T09:14:37;99678.84;;;10.46;80.41
58662;BME280;44432;49.786;22.760;2023-05-07T09:17:08;99677.79;;;10.48;80.06
58662;BME280;44432;49.786;22.760;2023-05-07T09:19:38;99686.70;;;10.44;79.40
58662;BME280;44432;49.786;22.760;2023-05-07T09:22:09;99685.15;;;10.33;79.52
58662;BME280;44432;49.786;22.760;2023-05-07T09:24:40;99688.84;;;10.31;80.33
58662;BME280;44432;49.786;22.760;2023-05-07T09:27:10;99688.92;;;10.39;80.76
58662;BME280;44432;49.786;22.760;2023-05-07T09:29:42;99690.18;;;10.46;80.55
58662;BME280;44432;49.786;22.760;2023-05-07T09:32:13;99697.13;;;10.50;80.01
58662;BME280;44432;49.786;22.760;2023-05-07T09:34:45;99700.98;;;10.47;79.58
58662;BME280;44432;49.786;22.760;2023-05-07T09:37:16;99707.75;;;10.43;79.57
58662;BME280;44432;49.786;22.760;2023-05-07T09:39:48;99707.97;;;10.40;79.63
58662;BME280;44432;49.786;22.760;2023-05-07T09:42:24;99714.13;;;10.40;79.27
58662;BME280;44432;49.786;22.760;2023-05-07T09:44:55;99716.79;;;10.35;79.40
58662;BME280;44432;49.786;22.760;2023-05-07T09:47:28;99724.23;;;10.38;79.84
58662;BME280;44432;49.786;22.760;2023-05-07T09:50:04;99732.25;;;10.37;78.99
58662;BME280;44432;49.786;22.760;2023-05-07T09:52:36;99732.35;;;10.08;77.40
58662;BME280;44432;49.786;22.760;2023-05-07T09:55:10;99730.59;;;9.85;78.02
58662;BME280;44432;49.786;22.760;2023-05-07T09:57:40;99733.79;;;9.81;79.33
58662;BME280;44432;49.786;22.760;2023-05-07T10:00:14;99740.63;;;9.87;79.52
58662;BME280;44432;49.786;22.760;2023-05-07T10:02:46;99743.40;;;9.90;79.03
58662;BME280;44432;49.786;22.760;2023-05-07T10:05:19;99741.08;;;9.79;78.51
58662;BME280;44432;49.786;22.760;2023-05-07T10:07:51;99744.99;;;9.76;79.22
58662;BME280;44432;49.786;22.760;2023-05-07T10:10:23;99745.92;;;9.82;79.22
58662;BME280;44432;49.786;22.760;2023-05-07T10:12:54;99748.43;;;9.81;78.85
58662;BME280;44432;49.786;22.760;2023-05-07T10:15:26;99745.90;;;9.79;78.69
58662;BME280;44432;49.786;22.760;2023-05-07T10:17:56;99743.63;;;9.78;78.80
58662;BME280;44432;49.786;22.760;2023-05-07T10:20:28;99739.92;;;9.77;79.29
58662;BME280;44432;49.786;22.760;2023-05-07T10:22:59;99742.98;;;9.86;79.79
58662;BME280;44432;49.786;22.760;2023-05-07T10:25:34;99745.36;;;9.93;79.09
58662;BME280;44432;49.786;22.760;2023-05-07T10:28:07;99746.93;;;9.89;78.60
58662;BME280;44432;49.786;22.760;2023-05-07T10:30:48;99753.91;;;9.90;78.36
58662;BME280;44432;49.786;22.760;2023-05-07T10:33:26;99758.20;;;9.87;78.58
58662;BME280;44432;49.786;22.760;2023-05-07T10:36:00;99761.34;;;9.90;78.30
58662;BME280;44432;49.786;22.760;2023-05-07T10:38:33;99771.62;;;9.93;77.70
58662;BME280;44432;49.786;22.760;2023-05-07T10:41:04;99770.52;;;9.86;77.01
58662;BME280;44432;49.786;22.760;2023-05-07T10:43:43;99773.63;;;9.81;77.35
58662;BME280;44432;49.786;22.760;2023-05-07T10:46:16;99776.86;;;9.79;77.64
58662;BME280;44432;49.786;22.760;2023-05-07T10:49:08;99772.64;;;9.79;77.34
58662;BME280;44432;49.786;22.760;2023-05-07T10:51:40;99771.73;;;9.85;76.35
58662;BME280;44432;49.786;22.760;2023-05-07T10:54:26;99776.31;;;9.75;75.35
58662;BME280;44432;49.786;22.760;2023-05-07T10:56:56;99773.75;;;9.75;75.90
58662;BME280;44432;49.786;22.760;2023-05-07T10:59:36;99777.66;;;9.72;75.17
58662;BME280;44432;49.786;22.760;2023-05-07T11:02:12;99780.38;;;9.57;74.85
58662;BME280;44432;49.786;22.760;2023-05-07T11:04:44;99783.59;;;9.51;75.73
58662;BME280;44432;49.786;22.760;2023-05-07T11:07:31;99785.92;;;9.62;75.90
58662;BME280;44432;49.786;22.760;2023-05-07T11:10:07;99785.13;;;9.72;75.12
58662;BME280;44432;49.786;22.760;2023-05-07T11:12:54;99789.74;;;9.64;73.94
58662;BME280;44432;49.786;22.760;2023-05-07T11:15:40;99793.64;;;9.58;73.83
58662;BME280;44432;49.786;22.760;2023-05-07T11:18:13;99796.59;;;9.48;73.45
58662;BME280;44432;49.786;22.760;2023-05-07T11:20:48;99801.86;;;9.36;73.63
58662;BME280;44432;49.786;22.760;2023-05-07T11:23:56;99798.11;;;9.41;74.09
58662;BME280;44432;49.786;22.760;2023-05-07T11:26:43;99803.47;;;9.65;74.49
58662;BME280;44432;49.786;22.760;2023-05-07T11:29:16;99806.90;;;9.68;73.97
58662;BME280;44432;49.786;22.760;2023-05-07T11:31:49;99807.17;;;9.69;74.29
58662;BME280;44432;49.786;22.760;2023-05-07T11:34:25;99806.80;;;9.73;73.91
58662;BME280;44432;49.786;22.760;2023-05-07T11:36:56;99813.23;;;9.70;73.51
58662;BME280;44432;49.786;22.760;2023-05-07T11:39:31;99809.29;;;9.63;73.76
58662;BME280;44432;49.786;22.760;2023-05-07T11:42:03;99819.48;;;9.57;73.35
58662;BME280;44432;49.786;22.760;2023-05-07T11:44:44;99825.35;;;9.45;73.28
58662;BME280;44432;49.786;22.760;2023-05-07T11:47:20;99831.31;;;9.31;73.49
58662;BME280;44432;49.786;22.760;2023-05-07T11:49:52;99832.88;;;9.24;73.63
58662;BME280;44432;49.786;22.760;2023-05-07T11:52:24;99833.66;;;9.21;74.00
58662;BME280;44432;49.786;22.760;2023-05-07T11:54:56;99835.71;;;9.24;74.25
58662;BME280;44432;49.786;22.760;2023-05-07T11:57:28;99838.23;;;9.24;74.15
58662;BME280;44432;49.786;22.760;2023-05-07T11:59:59;99847.16;;;9.22;74.14
58662;BME280;44432;49.786;22.760;2023-05-07T12:02:31;99844.13;;;9.13;73.53
58662;BME280;44432;49.786;22.760;2023-05-07T12:05:04;99842.84;;;8.96;73.62
58662;BME280;44432;49.786;22.760;2023-05-07T12:07:36;99844.20;;;8.82;73.94
58662;BME280;44432;49.786;22.760;2023-05-07T12:10:07;99851.64;;;8.73;74.15
58662;BME280;44432;49.786;22.760;2023-05-07T12:12:41;99850.70;;;8.62;74.63
58662;BME280;44432;49.786;22.760;2023-05-07T12:15:18;99852.85;;;8.66;75.34
58662;BME280;44432;49.786;22.760;2023-05-07T12:17:52;99856.77;;;8.76;75.45
58662;BME280;44432;49.786;22.760;2023-05-07T12:20:24;99860.74;;;8.80;74.52
58662;BME280;44432;49.786;22.760;2023-05-07T12:22:55;99861.33;;;8.74;74.94
58662;BME280;44432;49.786;22.760;2023-05-07T12:25:26;99865.39;;;8.75;74.88
58662;BME280;44432;49.786;22.760;2023-05-07T12:28:01;99863.44;;;8.71;74.94
58662;BME280;44432;49.786;22.760;2023-05-07T12:30:38;99867.55;;;8.69;74.88
58662;BME280;44432;49.786;22.760;2023-05-07T12:33:09;99864.36;;;8.64;74.44
58662;BME280;44432;49.786;22.760;2023-05-07T12:35:41;99863.77;;;8.59;74.79
58662;BME280;44432;49.786;22.760;2023-05-07T12:38:13;99863.00;;;8.55;74.96
58662;BME280;44432;49.786;22.760;2023-05-07T12:40:45;99862.02;;;8.50;75.08
58662;BME280;44432;49.786;22.760;2023-05-07T12:43:20;99864.13;;;8.57;75.97
58662;BME280;44432;49.786;22.760;2023-05-07T12:45:53;99868.15;;;8.69;75.97
58662;BME280;44432;49.786;22.760;2023-05-07T12:48:25;99876.41;;;8.76;75.26
58662;BME280;44432;49.786;22.760;2023-05-07T12:50:57;99874.64;;;8.66;74.76
58662;BME280;44432;49.786;22.760;2023-05-07T12:53:30;99886.16;;;8.51;74.35
58662;BME280;44432;49.786;22.760;2023-05-07T12:56:01;99882.23;;;8.35;74.62
58662;BME280;44432;49.786;22.760;2023-05-07T12:58:34;99883.64;;;8.25;75.39
58662;BME280;44432;49.786;22.760;2023-05-07T13:01:07;99884.08;;;8.24;75.51
58662;BME280;44432;49.786;22.760;2023-05-07T13:03:37;99883.91;;;8.30;75.87
58662;BME280;44432;49.786;22.760;2023-05-07T13:06:09;99886.32;;;8.32;75.68
58662;BME280;44432;49.786;22.760;2023-05-07T13:08:42;99886.58;;;8.27;75.60
58662;BME280;44432;49.786;22.760;2023-05-07T13:11:14;99884.55;;;8.23;75.76
58662;BME280;44432;49.786;22.760;2023-05-07T13:13:45;99889.42;;;8.25;75.89
58662;BME280;44432;49.786;22.760;2023-05-07T13:16:16;99886.72;;;8.28;75.87
58662;BME280;44432;49.786;22.760;2023-05-07T13:18:46;99890.51;;;8.28;75.95